Terminal Aerodrome Forecast
Issued by NWS

Home | Current Version | Previous Version | Text Only | Print | Product List | Glossary On
Versions: 1 2 3 4 5 6 7 8 9 10 11 12 13 14 15 16 17 18 19 20 21 22 23 24
183
FTUS46 KMTR 261256 AAA
TAFMRY
TAF AMD
KMRY 261256Z 2613/2712 VRB03KT P6SM SKC
     FM261400 27005KT P6SM FEW010
     FM261630 28011KT P6SM FEW011
     FM270300 28008KT P6SM OVC010
     FM270600 22005KT P6SM OVC007=

USA.gov is the U.S. government's official web portal to all federal, state and local government web resources and services.